Terminal Aerodrome Forecast
Issued by NWS Pittsburgh, PA

Current Version | Previous Version | Text Only | Print | Product List | Glossary Off
Versions: 1 2 3 4 5 6 7 8 9 10 11 12 13 14 15 16 17 18 19 20 21 22 23 24 25 26

000
FTUS41 KPBZ 262000 AAA
TAFPIT
TAF AMD
KPIT 262056Z 2621/2724 22008KT P6SM FEW150 SCT250
     FM270900 20003KT P6SM SCT050
     FM272100 20008KT P6SM BKN050 OVC100=

USA.gov is the U.S. government's official web portal to all federal, state and local government web resources and services.